createdAt,value
2023-05-10T00:00:13.279Z,1.83
2023-05-10T00:02:39.965Z,1.95
2023-05-10T00:05:07.113Z,1.80
2023-05-10T00:07:33.733Z,1.80
2023-05-10T00:10:00.206Z,1.48
2023-05-10T00:12:26.664Z,1.50
2023-05-10T00:14:53.220Z,1.35
2023-05-10T00:17:19.676Z,1.40
2023-05-10T00:19:46.188Z,1.30
2023-05-10T00:22:12.699Z,1.40
2023-05-10T00:24:39.191Z,1.20
2023-05-10T00:27:05.850Z,1.58
2023-05-10T00:29:32.758Z,1.40
2023-05-10T00:31:59.320Z,1.20
2023-05-10T00:34:25.876Z,1.20
2023-05-10T00:36:52.345Z,1.20
2023-05-10T00:39:18.809Z,1.13
2023-05-10T00:41:45.314Z,1.02
2023-05-10T00:44:12.313Z,1.00
2023-05-10T00:46:38.903Z,1.00
2023-05-10T00:49:05.485Z,0.98
2023-05-10T00:51:32.611Z,0.90
2023-05-10T00:53:59.412Z,1.20
2023-05-10T00:56:26.719Z,1.10
2023-05-10T00:58:53.233Z,1.10
2023-05-10T01:01:20.534Z,1.08
2023-05-10T01:03:47.974Z,0.90
2023-05-10T01:06:15.779Z,1.08
2023-05-10T01:12:51.130Z,1.08
2023-05-10T01:15:18.358Z,1.20
2023-05-10T01:17:46.242Z,1.20
2023-05-10T01:20:13.391Z,1.33
2023-05-10T01:23:05.539Z,1.40
2023-05-10T01:25:59.340Z,1.80
2023-05-10T01:29:17.312Z,1.60
2023-05-10T01:32:05.139Z,1.77
2023-05-10T01:34:36.637Z,1.75
2023-05-10T01:37:12.271Z,1.80
2023-05-10T01:39:54.146Z,1.77
2023-05-10T01:42:24.749Z,1.70
2023-05-10T01:45:23.542Z,1.90
2023-05-10T01:48:16.560Z,1.70
2023-05-10T01:50:44.815Z,1.90
2023-05-10T01:53:12.841Z,1.70
2023-05-10T01:55:46.610Z,1.88
2023-05-10T01:58:16.487Z,1.83
2023-05-10T02:00:44.649Z,2.35
2023-05-10T02:03:12.487Z,1.98
2023-05-10T02:05:39.847Z,2.40
2023-05-10T02:08:08.350Z,2.10
2023-05-10T02:10:37.687Z,2.08
2023-05-10T02:13:05.065Z,2.75
2023-05-10T02:15:32.083Z,2.13
2023-05-10T02:17:59.571Z,2.13
2023-05-10T02:20:27.112Z,2.28
2023-05-10T02:22:55.644Z,2.20
2023-05-10T02:25:23.413Z,2.30
2023-05-10T02:27:51.097Z,2.20
2023-05-10T02:30:19.041Z,2.20
2023-05-10T02:32:46.197Z,2.33
2023-05-10T02:35:13.166Z,2.40
2023-05-10T02:37:40.807Z,2.63
2023-05-10T02:40:08.102Z,2.33
2023-05-10T02:42:37.122Z,2.53
2023-05-10T02:45:09.079Z,2.70
2023-05-10T02:47:35.936Z,2.42
2023-05-10T02:50:02.595Z,2.85
2023-05-10T02:52:40.053Z,2.50
2023-05-10T02:55:07.228Z,2.50
2023-05-10T02:57:34.957Z,2.70
2023-05-10T03:00:03.944Z,2.63
2023-05-10T03:02:31.976Z,2.70
2023-05-10T03:04:59.659Z,2.83
2023-05-10T03:07:26.721Z,2.70
2023-05-10T03:09:53.423Z,3.00
2023-05-10T03:12:56.752Z,2.85
2023-05-10T03:15:29.378Z,3.17
2023-05-10T03:18:08.081Z,2.85
2023-05-10T03:20:43.517Z,2.75
2023-05-10T03:23:42.205Z,2.80
2023-05-10T03:26:09.749Z,2.45
2023-05-10T03:28:36.625Z,2.90
2023-05-10T03:31:07.156Z,2.90
2023-05-10T03:36:00.872Z,2.90
2023-05-10T03:38:29.666Z,3.10
2023-05-10T03:43:23.344Z,3.30
2023-05-10T03:45:49.891Z,3.60
2023-05-10T03:48:16.376Z,3.20
2023-05-10T03:50:43.862Z,3.15
2023-05-10T03:53:10.402Z,3.35
2023-05-10T03:55:37.410Z,3.60
2023-05-10T03:58:04.119Z,2.88
2023-05-10T04:00:31.165Z,3.28
2023-05-10T04:02:57.773Z,3.40
2023-05-10T04:05:24.524Z,3.55
2023-05-10T04:07:52.968Z,3.70
2023-05-10T04:10:19.773Z,3.78
2023-05-10T04:12:46.329Z,3.90
2023-05-10T04:15:12.904Z,3.83
2023-05-10T04:17:39.572Z,4.18
2023-05-10T04:20:07.433Z,4.13
2023-05-10T04:22:33.961Z,4.15
2023-05-10T04:25:00.484Z,4.15
2023-05-10T04:27:27.397Z,4.28
2023-05-10T04:29:53.942Z,3.97
2023-05-10T04:32:21.245Z,4.28
2023-05-10T04:34:48.139Z,4.28
2023-05-10T04:37:14.662Z,4.47
2023-05-10T04:39:42.510Z,4.20
2023-05-10T04:42:09.255Z,4.95
2023-05-10T04:44:36.377Z,4.30
2023-05-10T04:47:03.925Z,4.68
2023-05-10T04:49:30.964Z,4.25
2023-05-10T04:52:00.493Z,4.47
2023-05-10T04:54:27.211Z,4.20
2023-05-10T04:56:53.737Z,4.63
2023-05-10T04:59:20.235Z,4.40
2023-05-10T05:01:46.974Z,4.50
2023-05-10T05:04:13.476Z,4.85
2023-05-10T05:06:39.958Z,7.78
2023-05-10T05:09:06.509Z,4.82
2023-05-10T05:11:32.965Z,4.97
2023-05-10T05:14:00.169Z,5.05
2023-05-10T05:16:27.479Z,5.07
2023-05-10T05:18:54.254Z,4.65
2023-05-10T05:21:21.310Z,4.90
2023-05-10T05:23:47.928Z,4.80
2023-05-10T05:26:15.852Z,4.75
2023-05-10T05:28:42.492Z,4.82
2023-05-10T05:31:09.280Z,5.20
2023-05-10T05:33:35.957Z,4.82
2023-05-10T05:36:03.717Z,5.57
2023-05-10T05:38:30.319Z,5.10
2023-05-10T05:40:57.163Z,5.55
2023-05-10T05:43:23.791Z,5.38
2023-05-10T05:45:50.662Z,4.60
2023-05-10T05:48:20.477Z,4.80
2023-05-10T05:50:49.794Z,4.80
2023-05-10T05:55:56.956Z,4.32
2023-05-10T05:58:23.777Z,3.92
2023-05-10T06:00:50.646Z,4.43
2023-05-10T06:03:20.707Z,4.03
2023-05-10T06:05:47.686Z,3.60
2023-05-10T06:08:14.170Z,3.90
2023-05-10T06:10:40.735Z,3.80
2023-05-10T06:13:07.372Z,4.13
2023-05-10T06:15:34.353Z,3.83
2023-05-10T06:18:01.033Z,3.83
2023-05-10T06:20:27.664Z,4.32
2023-05-10T06:22:54.269Z,4.60
2023-05-10T06:25:20.779Z,4.80
2023-05-10T06:27:51.122Z,4.50
2023-05-10T06:30:19.581Z,4.72
2023-05-10T06:32:46.392Z,4.72
2023-05-10T06:35:12.985Z,4.85
2023-05-10T06:37:39.712Z,5.35
2023-05-10T06:40:10.297Z,5.68
2023-05-10T06:42:36.892Z,5.70
2023-05-10T06:45:03.656Z,5.18
2023-05-10T06:47:30.251Z,5.50
2023-05-10T06:49:56.857Z,5.60
2023-05-10T06:52:23.415Z,4.95
2023-05-10T06:54:49.910Z,5.32
2023-05-10T06:57:30.706Z,5.55
2023-05-10T07:00:02.165Z,5.03
2023-05-10T07:02:29.064Z,4.57
2023-05-10T07:04:55.862Z,4.90
2023-05-10T07:07:22.508Z,4.57
2023-05-10T07:09:50.540Z,4.30
2023-05-10T07:12:17.098Z,3.65
2023-05-10T07:14:43.809Z,3.85
2023-05-10T07:17:13.638Z,3.83
2023-05-10T07:19:40.267Z,3.63
2023-05-10T07:22:06.791Z,3.35
2023-05-10T07:24:34.145Z,3.50
2023-05-10T07:27:00.865Z,3.17
2023-05-10T07:29:27.510Z,3.63
2023-05-10T07:31:58.843Z,3.20
2023-05-10T07:34:29.254Z,3.30
2023-05-10T07:36:55.794Z,3.17
2023-05-10T07:39:27.537Z,3.10
2023-05-10T07:41:55.631Z,3.70
2023-05-10T07:44:22.251Z,2.80
2023-05-10T07:46:49.493Z,3.00
2023-05-10T07:49:16.297Z,2.80
2023-05-10T07:51:43.618Z,3.00
2023-05-10T07:54:10.218Z,2.30
2023-05-10T07:56:40.637Z,2.20
2023-05-10T07:59:09.245Z,2.35
2023-05-10T08:01:36.895Z,2.10
2023-05-10T08:04:03.659Z,2.30
2023-05-10T08:06:31.029Z,2.35
2023-05-10T08:08:58.237Z,2.20
2023-05-10T08:11:24.827Z,2.03
2023-05-10T08:13:51.854Z,2.10
2023-05-10T08:16:18.958Z,1.80
2023-05-10T08:18:47.717Z,1.75
2023-05-10T08:21:15.306Z,1.85
2023-05-10T08:23:41.963Z,1.90
2023-05-10T08:26:08.502Z,1.60
2023-05-10T08:28:35.324Z,1.70
2023-05-10T08:31:01.895Z,1.65
2023-05-10T08:33:28.546Z,1.48
2023-05-10T08:35:55.125Z,1.40
2023-05-10T08:38:21.681Z,1.40
2023-05-10T08:40:50.297Z,1.30
2023-05-10T08:43:16.975Z,1.10
2023-05-10T08:45:46.327Z,1.20
2023-05-10T08:48:12.946Z,1.13
2023-05-10T08:50:41.754Z,1.10
2023-05-10T08:53:12.924Z,1.20
2023-05-10T08:55:41.110Z,1.30
2023-05-10T08:58:08.107Z,1.23
2023-05-10T09:00:35.115Z,1.38
2023-05-10T09:03:02.587Z,1.30
2023-05-10T09:05:29.284Z,1.25
2023-05-10T09:07:58.789Z,1.30
2023-05-10T09:10:28.135Z,1.20
2023-05-10T09:15:21.508Z,1.52
2023-05-10T09:17:48.462Z,1.40
2023-05-10T09:20:15.161Z,1.30
2023-05-10T09:22:41.817Z,1.75
2023-05-10T09:25:13.550Z,2.15
2023-05-10T09:27:41.578Z,1.55
2023-05-10T09:30:09.297Z,1.50
2023-05-10T09:32:46.691Z,1.50
2023-05-10T09:35:14.170Z,1.40
2023-05-10T09:37:42.542Z,1.40
2023-05-10T09:40:13.166Z,1.77
2023-05-10T09:42:40.166Z,1.92
2023-05-10T09:45:07.910Z,1.73
2023-05-10T09:47:38.220Z,1.75
2023-05-10T09:50:05.984Z,1.60
2023-05-10T09:52:47.434Z,1.50
2023-05-10T09:55:14.500Z,1.50
2023-05-10T09:57:41.793Z,1.70
2023-05-10T10:00:12.294Z,1.63
2023-05-10T10:02:41.642Z,1.42
2023-05-10T10:05:08.580Z,1.60
2023-05-10T10:07:35.615Z,1.80
2023-05-10T10:10:03.099Z,1.80
2023-05-10T10:12:29.666Z,1.83
2023-05-10T10:14:56.304Z,1.90
2023-05-10T10:17:22.922Z,1.70
2023-05-10T10:19:58.099Z,1.67
2023-05-10T10:22:25.068Z,1.50
2023-05-10T10:24:54.353Z,1.58
2023-05-10T10:30:12.476Z,1.23
2023-05-10T10:32:55.102Z,1.13
2023-05-10T10:35:22.280Z,1.15
2023-05-10T10:37:51.829Z,1.45
2023-05-10T10:40:29.598Z,1.50
2023-05-10T10:42:57.414Z,1.10
2023-05-10T10:45:24.907Z,1.50
2023-05-10T10:48:23.862Z,1.58
2023-05-10T10:50:57.497Z,1.50
2023-05-10T10:53:27.341Z,1.40
2023-05-10T10:56:07.104Z,1.30
2023-05-10T10:58:34.777Z,1.20
2023-05-10T11:01:34.340Z,1.20
2023-05-10T11:04:04.088Z,1.10
2023-05-10T11:06:35.144Z,1.20
2023-05-10T11:09:10.129Z,1.00
2023-05-10T11:11:37.354Z,1.13
2023-05-10T11:14:10.320Z,1.20
2023-05-10T11:16:45.180Z,1.35
2023-05-10T11:19:16.575Z,1.50
2023-05-10T11:21:50.071Z,1.30
2023-05-10T11:24:19.164Z,1.35
2023-05-10T11:26:46.023Z,1.17
2023-05-10T11:29:14.414Z,1.30
2023-05-10T11:31:46.232Z,1.00
2023-05-10T11:34:13.626Z,1.30
2023-05-10T11:36:40.372Z,1.20
2023-05-10T11:39:07.091Z,1.13
2023-05-10T11:41:33.721Z,1.25
2023-05-10T11:44:00.452Z,1.30
2023-05-10T11:46:29.414Z,1.10
2023-05-10T11:49:02.667Z,1.27
2023-05-10T11:51:29.286Z,0.98
2023-05-10T11:53:58.126Z,1.00
2023-05-10T11:56:25.878Z,1.30
2023-05-10T11:58:57.022Z,1.30
2023-05-10T12:01:39.784Z,1.10
2023-05-10T12:04:09.743Z,1.08
2023-05-10T12:06:41.389Z,1.50
2023-05-10T12:09:09.054Z,1.70
2023-05-10T12:11:44.035Z,1.77
2023-05-10T12:14:11.722Z,1.40
2023-05-10T12:16:38.373Z,1.30
2023-05-10T12:19:05.087Z,1.10
2023-05-10T12:21:32.287Z,1.15
2023-05-10T12:24:08.529Z,1.40
2023-05-10T12:26:36.301Z,1.52
2023-05-10T12:29:16.761Z,1.52
2023-05-10T12:31:53.214Z,1.48
2023-05-10T12:34:26.917Z,1.63
2023-05-10T12:36:54.560Z,1.20
2023-05-10T12:39:21.167Z,1.10
2023-05-10T12:41:47.794Z,1.30
2023-05-10T12:44:14.428Z,1.27
2023-05-10T12:46:41.060Z,1.42
2023-05-10T12:49:09.416Z,1.30
2023-05-10T12:51:36.321Z,1.13
2023-05-10T12:54:03.876Z,1.10
2023-05-10T12:56:30.512Z,1.15
2023-05-10T12:58:57.280Z,1.30
2023-05-10T13:01:23.952Z,1.23
2023-05-10T13:03:50.644Z,1.15
2023-05-10T13:06:17.272Z,1.10
2023-05-10T13:08:43.888Z,1.95
2023-05-10T13:11:10.551Z,1.02
2023-05-10T13:13:37.129Z,1.00
2023-05-10T13:16:03.779Z,1.15
2023-05-10T13:18:31.455Z,1.15
2023-05-10T13:20:58.004Z,1.02
2023-05-10T13:23:24.596Z,1.10
2023-05-10T13:25:51.279Z,1.08
2023-05-10T13:28:17.819Z,1.30
2023-05-10T13:30:44.566Z,1.15
2023-05-10T13:33:11.396Z,1.10
2023-05-10T13:35:38.020Z,1.10
2023-05-10T13:38:04.529Z,1.10
2023-05-10T13:40:31.164Z,1.10
2023-05-10T13:42:57.796Z,1.00
2023-05-10T13:45:24.380Z,1.17
2023-05-10T13:47:51.093Z,1.17
2023-05-10T13:50:17.986Z,1.10
2023-05-10T13:52:44.541Z,1.05
2023-05-10T13:55:13.326Z,1.17
2023-05-10T13:57:40.048Z,0.90
2023-05-10T14:00:07.797Z,0.90
2023-05-10T14:02:37.519Z,0.90
2023-05-10T14:05:04.900Z,1.20
2023-05-10T14:07:31.734Z,0.80
2023-05-10T14:09:58.495Z,1.00
2023-05-10T14:12:25.189Z,1.05
2023-05-10T14:14:52.739Z,1.10
2023-05-10T14:17:20.310Z,0.80
2023-05-10T14:19:46.817Z,0.93
2023-05-10T14:22:13.345Z,0.70
2023-05-10T14:24:39.918Z,0.70
2023-05-10T14:27:07.090Z,0.60
2023-05-10T14:29:33.994Z,0.90
2023-05-10T14:32:00.660Z,1.10
2023-05-10T14:34:27.273Z,0.77
2023-05-10T14:36:53.850Z,1.40
2023-05-10T14:39:20.396Z,1.00
2023-05-10T14:41:48.074Z,1.80
2023-05-10T14:44:14.650Z,1.65
2023-05-10T14:46:41.368Z,2.05
2023-05-10T14:49:08.512Z,1.50
2023-05-10T14:51:35.177Z,1.35
2023-05-10T14:54:01.849Z,2.50
2023-05-10T14:56:28.855Z,2.60
2023-05-10T14:58:55.448Z,1.45
2023-05-10T15:01:22.761Z,1.20
2023-05-10T15:03:50.124Z,0.70
2023-05-10T15:06:17.559Z,0.80
2023-05-10T15:08:44.333Z,0.80
2023-05-10T15:11:11.086Z,0.80
2023-05-10T15:13:37.669Z,0.90
2023-05-10T15:16:04.427Z,0.90
2023-05-10T15:18:30.987Z,0.93
2023-05-10T15:20:59.306Z,1.10
2023-05-10T15:23:26.103Z,0.87
2023-05-10T15:25:56.498Z,0.70
2023-05-10T15:28:23.426Z,0.68
2023-05-10T15:30:50.928Z,0.80
2023-05-10T15:33:17.581Z,0.82
2023-05-10T15:35:44.153Z,0.70
2023-05-10T15:38:10.916Z,0.70
2023-05-10T15:40:37.552Z,1.27
2023-05-10T15:43:07.683Z,0.80
2023-05-10T15:45:37.321Z,0.80
2023-05-10T15:48:04.585Z,0.63
2023-05-10T15:50:31.168Z,0.70
2023-05-10T15:52:57.736Z,0.77
2023-05-10T15:55:24.379Z,0.70
2023-05-10T15:57:51.442Z,0.80
2023-05-10T16:00:18.992Z,0.90
2023-05-10T16:02:45.656Z,0.70
2023-05-10T16:05:12.357Z,0.98
2023-05-10T16:07:40.159Z,0.90
2023-05-10T16:10:08.482Z,0.70
2023-05-10T16:12:35.590Z,0.60
2023-05-10T16:15:02.581Z,0.80
2023-05-10T16:17:29.301Z,1.10
2023-05-10T16:19:56.307Z,0.85
2023-05-10T16:22:27.114Z,0.90
2023-05-10T16:24:53.979Z,0.93
2023-05-10T16:27:20.706Z,0.85
2023-05-10T16:29:48.044Z,0.85
2023-05-10T16:32:14.733Z,0.85
2023-05-10T16:34:41.343Z,1.30
2023-05-10T16:37:07.969Z,1.02
2023-05-10T16:39:34.639Z,0.80
2023-05-10T16:42:01.316Z,0.93
2023-05-10T16:44:28.343Z,0.80
2023-05-10T16:46:55.203Z,0.73
2023-05-10T16:49:23.765Z,0.90
2023-05-10T16:51:52.488Z,1.00
2023-05-10T16:54:19.079Z,0.70
2023-05-10T16:56:45.889Z,0.70
2023-05-10T16:59:12.491Z,0.95
2023-05-10T17:01:39.200Z,1.13
2023-05-10T17:04:06.075Z,0.73
2023-05-10T17:06:32.960Z,1.00
2023-05-10T17:09:01.006Z,0.80
2023-05-10T17:11:29.688Z,1.20
2023-05-10T17:13:56.236Z,0.80
2023-05-10T17:16:22.989Z,0.95
2023-05-10T17:18:49.852Z,0.80
2023-05-10T17:21:16.793Z,0.80
2023-05-10T17:23:43.380Z,0.82
2023-05-10T17:26:10.038Z,0.90
2023-05-10T17:28:36.675Z,0.80
2023-05-10T17:31:03.253Z,0.90
2023-05-10T17:33:29.802Z,0.80
2023-05-10T17:35:56.785Z,0.80
2023-05-10T17:38:23.495Z,0.77
2023-05-10T17:40:51.310Z,0.75
2023-05-10T17:43:17.865Z,1.23
2023-05-10T17:45:48.013Z,0.90
2023-05-10T17:48:14.981Z,0.80
2023-05-10T17:50:43.434Z,0.80
2023-05-10T17:53:11.378Z,0.80
2023-05-10T17:55:42.202Z,1.38
2023-05-10T17:58:11.359Z,0.90
2023-05-10T18:00:38.937Z,0.70
2023-05-10T18:03:06.576Z,0.70
2023-05-10T18:05:38.689Z,0.75
2023-05-10T18:08:06.160Z,0.70
2023-05-10T18:10:33.322Z,0.60
2023-05-10T18:13:02.458Z,0.70
2023-05-10T18:15:29.219Z,0.70
2023-05-10T18:17:56.826Z,0.60
2023-05-10T18:20:23.617Z,0.70
2023-05-10T18:22:50.442Z,0.70
2023-05-10T18:25:17.567Z,0.80
2023-05-10T18:27:44.476Z,0.75
2023-05-10T18:30:12.534Z,0.70
2023-05-10T18:32:39.855Z,0.57
2023-05-10T18:35:07.604Z,0.60
2023-05-10T18:37:34.754Z,0.50
2023-05-10T18:40:01.780Z,0.70
2023-05-10T18:42:28.557Z,0.80
2023-05-10T18:44:55.823Z,0.70
2023-05-10T18:47:22.679Z,0.70
2023-05-10T18:49:49.424Z,0.68
2023-05-10T18:52:16.921Z,0.80
2023-05-10T18:54:47.259Z,0.80
2023-05-10T18:57:25.582Z,0.65
2023-05-10T19:09:35.244Z,0.80
2023-05-10T19:14:58.990Z,0.90
2023-05-10T19:17:38.579Z,0.57
2023-05-10T19:20:21.477Z,0.80
2023-05-10T19:23:09.907Z,1.30
2023-05-10T19:25:49.166Z,0.90
2023-05-10T19:28:31.662Z,0.90
2023-05-10T19:31:31.274Z,0.90
2023-05-10T19:37:29.474Z,1.20
2023-05-10T19:40:08.245Z,1.00
2023-05-10T19:46:17.216Z,0.80
2023-05-10T19:48:55.971Z,0.90
2023-05-10T19:51:30.157Z,0.80
2023-05-10T19:54:05.058Z,0.73
2023-05-10T19:56:33.753Z,0.77
2023-05-10T19:59:02.958Z,1.02
2023-05-10T20:03:56.981Z,0.93
2023-05-10T20:06:44.024Z,0.88
2023-05-10T20:09:10.637Z,1.20
2023-05-10T20:11:37.336Z,1.20
2023-05-10T20:14:05.301Z,1.00
2023-05-10T20:16:33.546Z,1.10
2023-05-10T20:19:00.426Z,1.13
2023-05-10T20:21:27.169Z,1.00
2023-05-10T20:23:53.900Z,1.10
2023-05-10T20:26:21.761Z,1.50
2023-05-10T20:28:48.484Z,1.10
2023-05-10T20:31:15.170Z,1.20
2023-05-10T20:33:42.952Z,0.80
2023-05-10T20:36:09.755Z,0.85
2023-05-10T20:38:37.012Z,1.08
2023-05-10T20:41:03.725Z,1.10
2023-05-10T20:43:30.416Z,0.98
2023-05-10T20:45:57.134Z,0.90
2023-05-10T20:48:23.719Z,0.90
2023-05-10T20:50:52.483Z,1.10
2023-05-10T20:53:19.160Z,1.00
2023-05-10T20:55:45.809Z,1.05
2023-05-10T20:58:12.694Z,1.02
2023-05-10T21:00:39.381Z,1.10
2023-05-10T21:03:06.153Z,1.00
2023-05-10T21:05:32.963Z,1.38
2023-05-10T21:07:59.633Z,1.17
2023-05-10T21:10:28.553Z,0.90
2023-05-10T21:12:56.314Z,1.15
2023-05-10T21:15:24.746Z,1.10
2023-05-10T21:17:54.128Z,1.40
2023-05-10T21:20:21.541Z,1.50
2023-05-10T21:22:48.484Z,1.30
2023-05-10T21:25:15.721Z,1.65
2023-05-10T21:27:42.723Z,1.30
2023-05-10T21:30:09.862Z,1.08
2023-05-10T21:32:36.842Z,1.15
2023-05-10T21:35:04.363Z,1.33
2023-05-10T21:37:30.887Z,1.17
2023-05-10T21:39:57.711Z,1.35
2023-05-10T21:42:24.476Z,1.35
2023-05-10T21:44:51.036Z,1.50
2023-05-10T21:47:17.584Z,1.38
2023-05-10T21:49:44.683Z,1.20
2023-05-10T21:52:11.715Z,1.27
2023-05-10T21:54:39.001Z,1.30
2023-05-10T21:57:05.545Z,1.33
2023-05-10T21:59:32.147Z,1.30
2023-05-10T22:01:58.808Z,1.05
2023-05-10T22:04:25.408Z,1.20
2023-05-10T22:06:51.879Z,1.25
2023-05-10T22:09:18.804Z,1.25
2023-05-10T22:11:45.624Z,1.13
2023-05-10T22:14:12.267Z,1.27
2023-05-10T22:16:38.877Z,1.10
2023-05-10T22:19:05.620Z,1.20
2023-05-10T22:21:32.213Z,1.20
2023-05-10T22:23:59.024Z,1.30
2023-05-10T22:26:26.008Z,1.20
2023-05-10T22:28:52.630Z,1.10
2023-05-10T22:31:19.156Z,1.00
2023-05-10T22:33:45.794Z,1.10
2023-05-10T22:36:12.379Z,1.50
2023-05-10T22:38:38.881Z,1.10
2023-05-10T22:41:05.442Z,1.10
2023-05-10T22:43:32.420Z,1.48
2023-05-10T22:45:59.024Z,1.30
2023-05-10T22:48:25.773Z,0.90
2023-05-10T22:50:52.402Z,1.10
2023-05-10T22:53:18.935Z,1.10
2023-05-10T22:55:46.963Z,0.85
2023-05-10T22:58:13.517Z,1.20
2023-05-10T23:00:39.997Z,1.05
2023-05-10T23:03:06.832Z,1.20
2023-05-10T23:05:33.387Z,1.20
2023-05-10T23:07:59.926Z,1.30
2023-05-10T23:10:26.777Z,1.30
2023-05-10T23:12:53.413Z,1.10
2023-05-10T23:15:19.913Z,1.15
2023-05-10T23:17:46.505Z,1.10
2023-05-10T23:20:13.231Z,1.20
2023-05-10T23:22:39.999Z,1.00
2023-05-10T23:25:07.245Z,1.02
2023-05-10T23:27:33.787Z,1.17
2023-05-10T23:30:00.364Z,1.02
2023-05-10T23:32:27.094Z,1.20
2023-05-10T23:34:53.771Z,1.10
2023-05-10T23:37:20.531Z,1.27
2023-05-10T23:39:47.049Z,1.10
2023-05-10T23:42:13.630Z,1.27
2023-05-10T23:44:40.234Z,1.10
2023-05-10T23:47:07.234Z,1.08
2023-05-10T23:49:33.889Z,1.23
2023-05-10T23:52:00.383Z,1.10
2023-05-10T23:54:27.027Z,1.13
2023-05-10T23:56:53.624Z,1.20
2023-05-10T23:59:20.255Z,1.10
